Time;durP1;ratioP1;P1;durP2;ratioP2;P2;SDS_P1;SDS_P2;PMS_P1;PMS_P2;Temp;Humidity;BMP_temperature;BMP_pressure;BME280_temperature;BME280_humidity;BME280_pressure;Samples;Min_cycle;Max_cycle;Signal;HPM_P1;HPM_P2
2022/07/07 00:02:17;;;;;;;7.80;5.25;;;16.90;99.90;;;;;;5084738;28;20410;-53
2022/07/07 00:04:43;;;;;;;7.00;5.65;;;16.90;99.90;;;;;;5079187;28;20115;-51
2022/07/07 00:07:08;;;;;;;5.85;5.28;;;16.90;99.90;;;;;;5076842;28;20032;-52
2022/07/07 00:09:34;;;;;;;8.40;5.45;;;16.90;99.90;;;;;;5072471;28;20041;-49
2022/07/07 00:12:00;;;;;;;9.52;6.80;;;16.90;99.90;;;;;;5078807;28;20035;-47
2022/07/07 00:14:26;;;;;;;9.93;6.05;;;16.90;99.90;;;;;;5071857;28;20041;-53
2022/07/07 00:16:52;;;;;;;8.18;5.60;;;16.90;99.90;;;;;;5073361;28;20039;-47
2022/07/07 00:19:18;;;;;;;8.60;6.18;;;16.90;99.90;;;;;;5090216;28;20032;-48
2022/07/07 00:21:43;;;;;;;8.45;6.32;;;16.90;99.90;;;;;;5089576;28;20541;-53
2022/07/07 00:24:09;;;;;;;7.25;5.50;;;16.90;99.90;;;;;;5089410;28;20043;-51
2022/07/07 00:26:34;;;;;;;8.82;6.53;;;16.90;99.90;;;;;;5089568;28;20127;-52
2022/07/07 00:29:00;;;;;;;11.27;6.50;;;16.90;99.90;;;;;;5087461;28;20489;-55
2022/07/07 00:31:26;;;;;;;;;;;16.90;99.90;;;;;;5089367;28;20040;-47
2022/07/07 00:33:52;;;;;;;10.18;7.45;;;16.90;99.90;;;;;;5088915;28;19927;-55
2022/07/07 00:36:18;;;;;;;9.15;7.70;;;16.90;99.90;;;;;;5088811;28;20115;-51
2022/07/07 00:38:43;;;;;;;9.00;6.75;;;17.00;99.90;;;;;;5088267;28;20520;-52
2022/07/07 00:41:09;;;;;;;9.73;7.10;;;16.90;99.90;;;;;;5089285;28;20098;-53
2022/07/07 00:43:39;;;;;;;8.55;6.68;;;17.00;99.90;;;;;;5086814;28;20528;-47
2022/07/07 00:46:06;;;;;;;8.93;7.68;;;16.90;99.90;;;;;;5069602;28;20591;-48
2022/07/07 00:48:35;;;;;;;7.50;6.78;;;16.90;99.90;;;;;;5073601;28;20321;-52
2022/07/07 00:51:01;;;;;;;9.90;8.00;;;16.90;99.90;;;;;;5089565;28;20401;-50
2022/07/07 00:53:26;;;;;;;11.45;8.30;;;16.90;99.90;;;;;;5088312;28;20036;-51
2022/07/07 00:55:52;;;;;;;10.65;7.90;;;16.90;99.90;;;;;;5090148;28;20475;-46
2022/07/07 00:58:17;;;;;;;9.52;8.45;;;16.80;99.90;;;;;;5089601;28;20037;-51
2022/07/07 01:00:43;;;;;;;10.73;8.40;;;16.90;99.90;;;;;;5070588;28;20064;-51
2022/07/07 01:03:09;;;;;;;9.77;8.50;;;16.90;99.90;;;;;;5068435;28;20040;-54
2022/07/07 01:05:36;;;;;;;;;;;16.90;99.90;;;;;;5069672;28;20047;-48
2022/07/07 01:08:03;;;;;;;10.40;8.43;;;16.80;99.90;;;;;;5069221;28;20015;-47
2022/07/07 01:10:29;;;;;;;14.85;9.07;;;16.80;99.90;;;;;;5070286;28;20080;-50
2022/07/07 01:12:55;;;;;;;11.13;9.13;;;16.80;99.90;;;;;;5068118;28;20045;-52
2022/07/07 01:15:21;;;;;;;11.27;9.02;;;16.80;99.90;;;;;;5086380;28;20090;-48
2022/07/07 01:17:46;;;;;;;16.98;10.13;;;16.80;99.90;;;;;;5089279;28;20509;-52
2022/07/07 01:20:13;;;;;;;11.25;10.25;;;16.80;99.90;;;;;;5079465;28;20040;-48
2022/07/07 01:22:47;;;;;;;14.02;9.93;;;16.80;99.90;;;;;;5068883;28;20110;-47
2022/07/07 01:25:12;;;;;;;10.25;8.48;;;16.80;99.90;;;;;;5073473;28;20028;-50
2022/07/07 01:27:38;;;;;;;10.35;9.35;;;16.80;99.90;;;;;;5073629;28;20051;-50
2022/07/07 01:30:04;;;;;;;11.27;10.07;;;16.80;99.90;;;;;;5084465;28;20114;-54
2022/07/07 01:32:30;;;;;;;13.05;10.25;;;16.80;99.90;;;;;;5073517;28;20072;-49
2022/07/07 01:34:55;;;;;;;11.82;9.75;;;16.80;99.90;;;;;;5085497;28;20477;-52
2022/07/07 01:37:24;;;;;;;16.02;10.77;;;16.70;99.90;;;;;;5084837;28;20029;-47
2022/07/07 01:39:50;;;;;;;12.50;10.40;;;16.80;99.90;;;;;;5074802;28;20036;-54
2022/07/07 01:42:15;;;;;;;11.68;10.15;;;16.80;99.90;;;;;;5087245;28;20034;-52
2022/07/07 01:44:42;;;;;;;12.73;10.57;;;16.80;99.90;;;;;;5074566;28;20058;-47
2022/07/07 01:47:10;;;;;;;11.07;9.93;;;16.70;99.90;;;;;;5086188;28;20040;-52
2022/07/07 01:49:37;;;;;;;16.33;9.90;;;16.70;99.90;;;;;;5081622;28;20044;-47
2022/07/07 01:52:04;;;;;;;14.07;9.38;;;16.70;99.90;;;;;;5091504;28;20044;-49
2022/07/07 01:54:32;;;;;;;12.50;9.52;;;16.70;99.90;;;;;;5090071;28;20458;-47
2022/07/07 01:56:57;;;;;;;11.45;8.85;;;16.70;99.90;;;;;;5092305;28;20555;-47
2022/07/07 01:59:23;;;;;;;15.63;8.70;;;16.70;99.90;;;;;;5092475;28;20036;-47
2022/07/07 02:01:49;;;;;;;14.02;8.48;;;16.70;99.90;;;;;;5090509;28;20043;-49
2022/07/07 02:04:15;;;;;;;10.43;8.23;;;16.70;99.90;;;;;;5091586;28;20044;-50
2022/07/07 02:06:40;;;;;;;13.32;8.95;;;16.70;99.90;;;;;;5092059;28;20154;-53
2022/07/07 02:09:07;;;;;;;8.88;7.57;;;16.70;99.90;;;;;;5092668;28;20047;-48
2022/07/07 02:11:33;;;;;;;9.43;7.18;;;16.70;99.90;;;;;;5083818;28;20051;-52
2022/07/07 02:13:59;;;;;;;9.65;7.40;;;16.70;99.90;;;;;;5071024;28;20097;-52
2022/07/07 02:16:25;;;;;;;6.55;5.60;;;16.70;99.90;;;;;;5071569;28;20036;-50
2022/07/07 02:18:53;;;;;;;;;;;16.70;99.90;;;;;;5072656;28;20078;-49
2022/07/07 02:21:19;;;;;;;8.65;4.57;;;16.60;99.90;;;;;;5072010;28;19917;-50
2022/07/07 02:23:45;;;;;;;;;;;16.60;99.90;;;;;;5069347;28;20044;-53
2022/07/07 02:26:12;;;;;;;6.28;3.72;;;16.60;99.90;;;;;;5074632;28;20506;-52
2022/07/07 02:28:39;;;;;;;4.72;3.92;;;16.60;99.90;;;;;;5091770;28;20055;-50
2022/07/07 02:31:05;;;;;;;4.53;4.07;;;16.50;99.90;;;;;;5092039;28;20047;-54
2022/07/07 02:33:30;;;;;;;5.00;4.60;;;16.50;99.90;;;;;;5075591;28;20037;-52
2022/07/07 02:35:56;;;;;;;4.53;3.58;;;16.50;99.90;;;;;;5071859;28;20075;-47
2022/07/07 02:38:22;;;;;;;5.60;3.20;;;16.50;99.90;;;;;;5071766;28;20035;-51
2022/07/07 02:40:48;;;;;;;3.60;2.50;;;16.50;99.90;;;;;;5071576;28;20032;-54
2022/07/07 02:43:14;;;;;;;2.88;2.20;;;16.50;99.90;;;;;;5081264;28;20054;-51
2022/07/07 02:45:40;;;;;;;4.93;2.28;;;16.50;99.90;;;;;;5091866;28;20403;-50
2022/07/07 02:48:10;;;;;;;3.92;2.05;;;16.50;99.90;;;;;;5088243;28;20036;-50
2022/07/07 02:50:37;;;;;;;2.92;2.30;;;16.50;99.90;;;;;;5071271;28;20654;-51
2022/07/07 02:53:03;;;;;;;2.35;1.70;;;16.50;99.90;;;;;;5084933;28;20040;-52
2022/07/07 02:55:30;;;;;;;3.42;1.63;;;16.50;99.90;;;;;;5084448;28;20040;-47
2022/07/07 02:57:59;;;;;;;2.33;1.60;;;16.50;99.90;;;;;;5073184;28;20135;-52
2022/07/07 03:00:25;;;;;;;2.72;1.52;;;16.50;99.90;;;;;;5082135;28;20036;-48
2022/07/07 03:02:52;;;;;;;1.63;1.40;;;16.50;99.90;;;;;;5088397;28;20396;-55
2022/07/07 03:05:18;;;;;;;2.20;1.17;;;16.50;99.90;;;;;;5089107;28;20044;-48
2022/07/07 03:07:44;;;;;;;3.47;1.20;;;16.50;99.90;;;;;;5090446;28;20050;-47
2022/07/07 03:10:09;;;;;;;1.88;1.00;;;16.50;99.90;;;;;;5091449;28;20456;-48
2022/07/07 03:12:35;;;;;;;2.78;1.08;;;16.50;99.90;;;;;;5090820;28;20580;-51
2022/07/07 03:15:00;;;;;;;4.90;1.77;;;16.50;99.90;;;;;;5078503;28;20047;-51
2022/07/07 03:17:26;;;;;;;4.93;1.50;;;16.50;99.90;;;;;;5070472;28;20037;-50
2022/07/07 03:19:52;;;;;;;2.95;1.42;;;16.50;99.90;;;;;;5070515;28;20093;-49
2022/07/07 03:22:18;;;;;;;5.25;1.35;;;16.50;99.90;;;;;;5087054;28;20036;-47
2022/07/07 03:24:43;;;;;;;1.42;1.17;;;16.50;99.90;;;;;;5088917;28;20043;-52
2022/07/07 03:27:09;;;;;;;3.20;1.50;;;16.50;99.90;;;;;;5090491;28;20047;-53
2022/07/07 03:29:34;;;;;;;3.03;1.75;;;16.50;99.90;;;;;;5090993;28;20460;-50
2022/07/07 03:32:00;;;;;;;2.08;1.88;;;16.50;99.90;;;;;;5090137;28;20485;-51
2022/07/07 03:34:26;;;;;;;4.40;2.28;;;16.50;99.90;;;;;;5090164;28;20036;-47
2022/07/07 03:36:51;;;;;;;5.00;1.88;;;16.50;99.90;;;;;;5088146;28;20111;-50
2022/07/07 03:39:17;;;;;;;3.55;1.90;;;16.50;99.90;;;;;;5091023;28;20119;-53
2022/07/07 03:41:42;;;;;;;5.15;2.03;;;16.60;99.90;;;;;;5090225;28;20036;-48
2022/07/07 03:44:08;;;;;;;4.60;2.10;;;16.50;99.90;;;;;;5089911;28;20082;-51
2022/07/07 03:46:34;;;;;;;4.40;1.27;;;16.50;99.90;;;;;;5088568;28;20044;-47
2022/07/07 03:49:00;;;;;;;5.38;1.73;;;16.50;99.90;;;;;;5090192;28;20035;-51
2022/07/07 03:51:25;;;;;;;3.83;2.10;;;16.50;99.90;;;;;;5079878;28;20071;-52
2022/07/07 03:53:51;;;;;;;6.75;1.95;;;16.50;99.90;;;;;;5069527;28;20417;-52
2022/07/07 03:56:17;;;;;;;4.72;1.70;;;16.40;99.90;;;;;;5072502;28;20062;-51
2022/07/07 03:58:43;;;;;;;5.50;0.82;;;16.50;99.90;;;;;;5088836;28;20058;-48
2022/07/07 04:01:09;;;;;;;4.22;1.30;;;16.50;99.90;;;;;;5088402;28;20032;-52
2022/07/07 04:03:34;;;;;;;3.42;1.08;;;16.50;99.90;;;;;;5076498;28;20044;-51
2022/07/07 04:06:00;;;;;;;3.75;1.10;;;16.50;99.90;;;;;;5087841;28;20043;-53
2022/07/07 04:08:25;;;;;;;3.55;0.90;;;16.50;99.90;;;;;;5072099;28;20559;-47
2022/07/07 04:10:51;;;;;;;5.70;1.55;;;16.40;99.90;;;;;;5069638;28;20059;-48
2022/07/07 04:13:17;;;;;;;;;;;16.40;99.90;;;;;;5069243;28;20092;-52
2022/07/07 04:15:42;;;;;;;5.35;1.52;;;16.40;99.90;;;;;;5070359;28;19967;-53
2022/07/07 04:18:08;;;;;;;4.05;1.48;;;16.40;99.90;;;;;;5069610;28;20408;-48
2022/07/07 04:20:34;;;;;;;8.52;0.80;;;16.40;99.90;;;;;;5069331;28;20035;-47
2022/07/07 04:22:59;;;;;;;5.60;1.23;;;16.40;99.90;;;;;;5068727;28;20115;-52
2022/07/07 04:25:25;;;;;;;4.38;0.88;;;16.40;99.90;;;;;;5081355;28;20047;-51
2022/07/07 04:27:50;;;;;;;6.80;1.42;;;16.40;99.90;;;;;;5083240;28;20047;-48
2022/07/07 04:30:16;;;;;;;7.00;0.80;;;16.40;99.90;;;;;;5070036;28;20291;-47
2022/07/07 04:32:42;;;;;;;3.47;0.82;;;16.40;99.90;;;;;;5069078;28;20028;-56
2022/07/07 04:35:09;;;;;;;4.93;0.60;;;16.40;99.90;;;;;;5068849;28;20044;-52
2022/07/07 04:37:34;;;;;;;;;;;16.40;99.90;;;;;;5070755;28;20069;-47
2022/07/07 04:40:00;;;;;;;6.63;1.38;;;16.40;99.90;;;;;;5089285;28;19958;-50
2022/07/07 04:42:25;;;;;;;3.75;0.80;;;16.40;99.90;;;;;;5089538;28;20044;-52
2022/07/07 04:44:51;;;;;;;4.47;0.60;;;16.40;99.90;;;;;;5086224;28;20417;-54
2022/07/07 04:47:17;;;;;;;5.35;0.55;;;16.40;99.90;;;;;;5069177;28;20072;-51
2022/07/07 04:49:43;;;;;;;8.30;1.13;;;16.40;99.90;;;;;;5070056;28;20524;-48
2022/07/07 04:52:08;;;;;;;5.22;0.90;;;16.40;99.90;;;;;;5069458;28;20036;-49
2022/07/07 04:54:34;;;;;;;10.85;0.98;;;16.50;99.90;;;;;;5068946;28;20033;-52
2022/07/07 04:57:00;;;;;;;2.67;0.70;;;16.50;99.90;;;;;;5069147;28;20198;-52
2022/07/07 04:59:25;;;;;;;2.25;0.30;;;16.40;99.90;;;;;;5070238;28;20174;-53
2022/07/07 05:01:51;;;;;;;1.50;0.60;;;16.40;99.90;;;;;;5068861;28;20040;-50
2022/07/07 05:04:17;;;;;;;4.25;0.63;;;16.40;99.90;;;;;;5068401;28;20519;-47
2022/07/07 05:06:42;;;;;;;5.10;0.70;;;16.30;99.90;;;;;;5069214;28;20043;-50
2022/07/07 05:09:09;;;;;;;3.30;0.40;;;16.20;99.90;;;;;;5079212;28;20040;-51
2022/07/07 05:11:35;;;;;;;4.32;0.45;;;16.20;99.90;;;;;;5079289;28;20075;-47
2022/07/07 05:14:01;;;;;;;5.85;0.60;;;16.20;99.90;;;;;;5074229;28;20141;-48
2022/07/07 05:16:27;;;;;;;3.17;0.65;;;16.20;99.90;;;;;;5088423;28;20134;-52
2022/07/07 05:18:52;;;;;;;8.82;1.20;;;16.20;99.90;;;;;;5081943;28;20032;-51
2022/07/07 05:21:18;;;;;;;3.30;0.50;;;16.10;99.90;;;;;;5069368;28;20048;-51
2022/07/07 05:23:43;;;;;;;7.78;0.98;;;16.10;99.90;;;;;;5070868;28;20199;-47
2022/07/07 05:26:09;;;;;;;3.13;0.35;;;16.20;99.90;;;;;;5072929;28;20036;-47
2022/07/07 05:28:36;;;;;;;6.82;0.50;;;16.20;99.90;;;;;;5073195;28;20097;-49
2022/07/07 05:31:02;;;;;;;3.10;0.50;;;16.20;99.90;;;;;;5073929;28;20045;-49
2022/07/07 05:33:28;;;;;;;3.60;0.38;;;16.20;99.90;;;;;;5071702;28;20036;-48
2022/07/07 05:35:54;;;;;;;4.63;0.30;;;16.20;99.90;;;;;;5072785;28;20039;-48
2022/07/07 05:38:19;;;;;;;3.58;0.35;;;16.20;99.90;;;;;;5071958;28;20044;-52
2022/07/07 05:40:45;;;;;;;2.65;0.30;;;16.20;99.90;;;;;;5073968;28;20044;-49
2022/07/07 05:43:10;;;;;;;2.97;0.25;;;16.10;99.90;;;;;;5071954;28;20040;-46
2022/07/07 05:45:36;;;;;;;2.90;0.40;;;16.20;99.90;;;;;;5073145;28;20037;-48
2022/07/07 05:48:01;;;;;;;1.55;0.20;;;16.20;99.90;;;;;;5072025;28;20477;-50
2022/07/07 05:50:27;;;;;;;2.40;0.25;;;16.20;99.90;;;;;;5072735;28;20041;-49
2022/07/07 05:52:52;;;;;;;2.15;0.45;;;16.20;99.90;;;;;;5072575;28;20534;-47
2022/07/07 05:55:18;;;;;;;1.35;0.20;;;16.30;99.90;;;;;;5071890;28;20044;-47
2022/07/07 05:57:44;;;;;;;3.53;0.43;;;16.30;99.90;;;;;;5071997;28;20032;-51
2022/07/07 06:00:10;;;;;;;1.83;0.30;;;16.30;99.90;;;;;;5072537;28;20119;-52
2022/07/07 06:02:35;;;;;;;5.38;0.30;;;16.30;99.90;;;;;;5072943;28;20047;-49
2022/07/07 06:05:02;;;;;;;6.20;0.30;;;16.40;99.90;;;;;;5072172;28;20044;-47
2022/07/07 06:07:28;;;;;;;2.38;0.30;;;16.50;99.90;;;;;;5071820;28;20502;-48
2022/07/07 06:09:53;;;;;;;3.90;0.30;;;16.50;99.90;;;;;;5073434;28;20036;-52
2022/07/07 06:12:19;;;;;;;7.18;0.68;;;16.60;99.90;;;;;;5075447;28;20033;-49
2022/07/07 06:14:44;;;;;;;7.45;0.68;;;16.70;99.90;;;;;;5078339;28;20036;-48
2022/07/07 06:17:10;;;;;;;3.53;0.60;;;16.80;99.90;;;;;;5077801;28;20036;-51
2022/07/07 06:19:36;;;;;;;3.63;0.50;;;16.90;99.90;;;;;;5079313;28;20447;-50
2022/07/07 06:22:01;;;;;;;16.02;1.23;;;16.90;99.90;;;;;;5088876;28;20081;-52
2022/07/07 06:24:27;;;;;;;13.73;0.68;;;17.00;99.90;;;;;;5082219;28;20047;-53
2022/07/07 06:26:52;;;;;;;4.18;0.40;;;17.00;99.90;;;;;;5090024;28;20560;-49
2022/07/07 06:29:18;;;;;;;11.48;1.27;;;17.10;99.90;;;;;;5092228;28;20040;-47
2022/07/07 06:31:43;;;;;;;5.57;0.30;;;17.10;99.90;;;;;;5076789;28;20051;-51
2022/07/07 06:34:09;;;;;;;2.10;0.47;;;17.20;99.90;;;;;;5070649;28;20470;-52
2022/07/07 06:36:34;;;;;;;3.92;0.40;;;17.20;99.90;;;;;;5072147;28;20124;-51
2022/07/07 06:39:00;;;;;;;8.82;0.85;;;17.20;99.90;;;;;;5076345;28;20029;-50
2022/07/07 06:41:34;;;;;;;3.80;0.40;;;17.20;99.90;;;;;;5082814;28;20033;-51
2022/07/07 06:44:00;;;;;;;6.85;1.33;;;17.20;99.90;;;;;;5071030;28;20051;-47
2022/07/07 06:46:25;;;;;;;6.50;0.95;;;17.20;99.90;;;;;;5071423;28;20044;-47
2022/07/07 06:48:51;;;;;;;9.02;0.30;;;17.20;99.90;;;;;;5072337;28;20044;-50
2022/07/07 06:51:16;;;;;;;2.85;0.32;;;17.20;99.90;;;;;;5070911;28;20033;-53
2022/07/07 06:53:42;;;;;;;6.40;1.17;;;17.20;99.90;;;;;;5069271;28;20048;-47
2022/07/07 06:56:07;;;;;;;4.90;0.65;;;17.20;99.90;;;;;;5071212;28;20464;-48
2022/07/07 06:58:33;;;;;;;4.53;0.55;;;17.20;99.90;;;;;;5071509;28;20108;-55
2022/07/07 07:00:58;;;;;;;6.63;0.40;;;17.20;99.90;;;;;;5071831;28;20060;-52
2022/07/07 07:03:24;;;;;;;7.20;0.80;;;17.30;99.90;;;;;;5069913;28;20045;-47
2022/07/07 07:05:49;;;;;;;5.40;0.40;;;17.30;99.90;;;;;;5090196;28;20040;-49
2022/07/07 07:08:15;;;;;;;5.63;1.00;;;17.40;99.90;;;;;;5091458;28;20557;-52
2022/07/07 07:10:41;;;;;;;5.43;0.68;;;17.50;99.90;;;;;;5083185;28;20036;-49
2022/07/07 07:13:06;;;;;;;4.72;0.43;;;17.60;99.90;;;;;;5083125;28;20039;-52
2022/07/07 07:15:32;;;;;;;5.85;0.47;;;17.70;99.90;;;;;;5090143;28;20161;-49
2022/07/07 07:17:57;;;;;;;8.77;0.98;;;17.60;99.90;;;;;;5087121;28;20154;-56
2022/07/07 07:20:23;;;;;;;2.75;0.77;;;17.70;99.90;;;;;;5086810;28;20032;-47
2022/07/07 07:22:49;;;;;;;6.00;0.50;;;17.70;99.90;;;;;;5078167;28;20044;-47
2022/07/07 07:25:16;;;;;;;5.75;0.70;;;17.60;99.90;;;;;;5087587;28;20044;-51
2022/07/07 07:27:41;;;;;;;9.77;0.95;;;17.50;99.90;;;;;;5077496;28;20040;-47
2022/07/07 07:30:07;;;;;;;5.28;0.88;;;17.50;99.90;;;;;;5085179;28;20046;-50
2022/07/07 07:32:33;;;;;;;3.28;0.38;;;17.40;99.90;;;;;;5081201;28;20035;-53
2022/07/07 07:34:58;;;;;;;2.42;0.30;;;17.30;99.90;;;;;;5082605;28;20036;-53
2022/07/07 07:37:24;;;;;;;3.50;0.63;;;17.10;99.90;;;;;;5077181;28;20061;-51
2022/07/07 07:39:50;;;;;;;4.47;0.45;;;17.00;99.90;;;;;;5090700;28;20031;-47
2022/07/07 07:42:15;;;;;;;4.05;0.68;;;17.00;99.90;;;;;;5085928;28;20405;-47
2022/07/07 07:47:25;;;;;;;6.25;0.30;;;17.10;99.90;;;;;;5070954;28;20044;-51
2022/07/07 07:49:50;;;;;;;0.52;0.10;;;17.20;99.90;;;;;;5090057;28;20118;-50
2022/07/07 07:52:16;;;;;;;2.30;0.35;;;17.30;99.90;;;;;;5088697;28;20039;-47
2022/07/07 07:54:41;;;;;;;5.50;0.28;;;17.40;99.90;;;;;;5077553;28;20056;-47
2022/07/07 07:57:07;;;;;;;1.80;0.28;;;17.50;99.90;;;;;;5072628;28;20044;-49
2022/07/07 07:59:32;;;;;;;3.75;0.30;;;17.50;99.90;;;;;;5086832;28;20071;-52
2022/07/07 08:01:58;;;;;;;2.85;0.20;;;17.60;99.90;;;;;;5089340;28;20115;-52
2022/07/07 08:04:23;;;;;;;1.95;0.25;;;17.70;99.90;;;;;;5089625;28;20146;-47
2022/07/07 08:06:49;;;;;;;5.35;0.10;;;17.80;99.90;;;;;;5088724;28;20113;-50
2022/07/07 08:09:15;;;;;;;3.50;0.80;;;17.90;99.90;;;;;;5090357;28;20040;-48
2022/07/07 08:11:40;;;;;;;2.50;0.30;;;17.90;99.90;;;;;;5089281;28;20115;-49
2022/07/07 08:14:06;;;;;;;2.35;0.20;;;17.90;99.90;;;;;;5089130;28;20566;-49
2022/07/07 08:16:32;;;;;;;3.67;0.50;;;18.00;99.90;;;;;;5089971;28;20401;-52
2022/07/07 08:18:58;;;;;;;0.80;0.20;;;18.10;99.90;;;;;;5089814;28;20417;-50
2022/07/07 08:21:24;;;;;;;2.78;0.32;;;18.20;99.90;;;;;;5089885;28;20036;-47
2022/07/07 08:23:49;;;;;;;6.18;0.50;;;18.30;99.90;;;;;;5089228;28;20397;-50
2022/07/07 08:26:15;;;;;;;1.38;0.43;;;18.40;99.90;;;;;;5089405;28;20123;-50
2022/07/07 08:28:41;;;;;;;4.60;0.20;;;18.30;99.90;;;;;;5086251;28;20089;-51
2022/07/07 08:31:07;;;;;;;5.70;0.25;;;18.30;99.90;;;;;;5075603;28;20161;-51
2022/07/07 08:33:33;;;;;;;4.30;0.30;;;18.30;99.90;;;;;;5085790;28;20079;-47
2022/07/07 08:35:59;;;;;;;0.40;0.30;;;18.40;99.90;;;;;;5069125;28;20086;-55
2022/07/07 08:38:25;;;;;;;5.13;0.50;;;18.40;99.90;;;;;;5074273;28;20466;-48
2022/07/07 08:40:51;;;;;;;2.47;0.20;;;18.40;99.90;;;;;;5078278;28;20033;-48
2022/07/07 08:43:17;;;;;;;1.10;0.25;;;18.30;99.90;;;;;;5078516;28;20401;-50
2022/07/07 08:45:43;;;;;;;2.42;0.10;;;18.20;99.90;;;;;;5079135;28;20046;-57
2022/07/07 08:48:08;;;;;;;0.73;0.20;;;18.00;99.90;;;;;;5071851;28;20060;-48
2022/07/07 08:50:38;;;;;;;2.55;0.17;;;18.00;99.90;;;;;;5081470;28;20528;-51
2022/07/07 08:53:04;;;;;;;2.17;0.10;;;17.90;99.90;;;;;;5087995;28;20040;-54
2022/07/07 08:55:32;;;;;;;2.55;0.10;;;18.00;99.90;;;;;;5083239;28;20040;-49
2022/07/07 08:57:59;;;;;;;1.90;0.20;;;18.00;99.90;;;;;;5080976;28;20041;-50
2022/07/07 09:00:25;;;;;;;0.63;0.13;;;18.10;99.90;;;;;;5083095;28;20036;-47
2022/07/07 09:02:56;;;;;;;4.35;0.30;;;18.10;99.90;;;;;;5092525;28;20043;-47
2022/07/07 09:05:21;;;;;;;2.50;0.25;;;18.20;99.90;;;;;;5093798;28;20078;-49
2022/07/07 09:07:48;;;;;;;1.83;0.15;;;18.30;99.90;;;;;;5087203;28;20060;-53
2022/07/07 09:10:28;;;;;;;2.10;0.28;;;18.40;99.90;;;;;;5082068;28;20033;-50
2022/07/07 09:12:53;;;;;;;1.27;0.10;;;18.50;99.90;;;;;;5072600;28;20067;-50
2022/07/07 09:15:19;;;;;;;4.22;0.20;;;18.50;99.90;;;;;;5081347;28;20490;-47
2022/07/07 09:17:45;;;;;;;2.60;0.20;;;18.50;99.90;;;;;;5072883;28;20108;-47
2022/07/07 09:20:14;;;;;;;0.47;0.20;;;18.60;99.90;;;;;;5080617;28;20032;-48
2022/07/07 09:22:56;;;;;;;0.90;0.40;;;18.60;99.90;;;;;;5084998;28;20040;-51
2022/07/07 09:25:24;;;;;;;2.22;0.30;;;18.70;99.90;;;;;;5081303;28;20036;-49
2022/07/07 09:28:04;;;;;;;2.88;0.45;;;18.70;99.90;;;;;;5092962;28;20111;-50
2022/07/07 09:30:38;;;;;;;2.20;0.32;;;18.80;99.90;;;;;;5089401;28;20036;-48
2022/07/07 09:33:05;;;;;;;3.85;0.30;;;18.90;99.90;;;;;;5071635;28;20040;-48
2022/07/07 09:38:18;;;;;;;5.35;0.65;;;18.80;99.90;;;;;;5080601;28;20052;-51
2022/07/07 09:40:58;;;;;;;7.13;0.40;;;18.90;99.90;;;;;;5073867;28;20033;-50
2022/07/07 09:43:24;;;;;;;4.32;2.10;;;18.90;99.90;;;;;;5075527;28;20641;-52
2022/07/07 09:46:24;;;;;;;4.07;0.45;;;18.90;99.90;;;;;;5080633;28;20082;-50
2022/07/07 09:48:52;;;;;;;5.03;0.60;;;18.90;99.90;;;;;;5080745;28;20028;-48
2022/07/07 09:51:19;;;;;;;4.05;0.70;;;18.90;99.90;;;;;;5086447;28;20041;-55
2022/07/07 09:54:01;;;;;;;3.85;0.20;;;18.90;99.90;;;;;;5071689;28;20055;-49
2022/07/07 09:56:30;;;;;;;3.65;0.30;;;18.90;99.90;;;;;;5072517;28;20051;-49
2022/07/07 09:58:56;;;;;;;5.95;0.30;;;18.90;99.90;;;;;;5082665;28;20044;-49
2022/07/07 10:01:25;;;;;;;4.22;0.68;;;18.80;99.90;;;;;;5087756;28;20049;-52
2022/07/07 10:03:59;;;;;;;2.47;0.52;;;18.70;99.90;;;;;;5072785;28;20045;-50
2022/07/07 10:06:27;;;;;;;3.72;0.68;;;18.70;99.90;;;;;;5079908;28;20448;-54
2022/07/07 10:09:04;;;;;;;6.57;0.80;;;18.60;99.90;;;;;;5090588;28;20043;-50
2022/07/07 10:11:42;;;;;;;5.15;0.35;;;18.60;99.90;;;;;;5075847;28;20040;-48
2022/07/07 10:14:14;;;;;;;4.93;0.60;;;18.60;99.90;;;;;;5080327;28;20093;-48
2022/07/07 10:16:41;;;;;;;5.28;0.63;;;18.60;99.90;;;;;;5076615;28;20048;-50
2022/07/07 10:19:09;;;;;;;4.40;0.82;;;18.50;99.90;;;;;;5078518;28;20044;-50
2022/07/07 10:21:35;;;;;;;1.55;0.50;;;18.50;99.90;;;;;;5056214;28;20047;-51
2022/07/07 10:24:02;;;;;;;4.13;0.47;;;18.40;99.90;;;;;;5082104;28;20382;-52
2022/07/07 10:26:37;;;;;;;;;;;18.30;99.90;;;;;;5080814;28;20044;-52
2022/07/07 10:29:03;;;;;;;1.80;0.40;;;18.40;99.90;;;;;;5077275;28;19966;-48
2022/07/07 10:31:30;;;;;;;4.53;0.50;;;18.40;99.90;;;;;;5071309;28;20064;-52
2022/07/07 10:34:00;;;;;;;6.38;0.32;;;18.40;99.90;;;;;;5074350;28;20127;-50
2022/07/07 10:36:26;;;;;;;4.68;0.30;;;18.50;99.90;;;;;;5085812;28;20067;-49
2022/07/07 10:38:57;;;;;;;2.80;0.40;;;18.60;99.90;;;;;;5085674;28;20124;-51
2022/07/07 10:41:24;;;;;;;4.60;0.40;;;18.70;99.90;;;;;;5074666;28;20442;-53
2022/07/07 10:44:10;;;;;;;1.67;0.20;;;18.70;99.90;;;;;;5086781;28;20485;-50
2022/07/07 10:46:37;;;;;;;2.38;0.22;;;18.70;99.90;;;;;;5072762;28;20037;-51
2022/07/07 10:49:11;;;;;;;1.95;0.45;;;18.70;99.90;;;;;;5077694;28;20050;-52
2022/07/07 10:51:54;;;;;;;4.10;0.75;;;18.70;99.90;;;;;;5089670;28;20157;-55
2022/07/07 10:54:37;;;;;;;3.67;0.50;;;18.70;99.90;;;;;;5083960;28;20498;-52
2022/07/07 10:57:02;;;;;;;3.97;0.35;;;18.80;99.90;;;;;;5071307;28;20041;-49
2022/07/07 10:59:28;;;;;;;1.83;0.70;;;18.80;99.90;;;;;;5072372;28;20387;-50
2022/07/07 11:02:02;;;;;;;2.55;0.30;;;18.80;99.90;;;;;;5076778;28;20040;-49
2022/07/07 11:04:44;;;;;;;6.38;0.55;;;18.80;99.90;;;;;;5087066;28;20047;-54
2022/07/07 11:07:21;;;;;;;2.53;0.50;;;18.80;99.90;;;;;;5090676;28;20118;-49
2022/07/07 11:10:01;;;;;;;2.92;0.50;;;18.70;99.90;;;;;;5089791;28;20228;-51
2022/07/07 11:12:34;;;;;;;1.58;0.40;;;18.60;99.90;;;;;;5090486;28;20039;-53
2022/07/07 11:15:21;;;;;;;2.83;0.30;;;18.50;99.90;;;;;;5088978;28;20048;-49
2022/07/07 11:17:52;;;;;;;3.00;0.45;;;18.50;99.90;;;;;;5090861;28;20046;-49
2022/07/07 11:20:23;;;;;;;3.60;0.40;;;18.40;99.90;;;;;;5083091;28;20043;-52
2022/07/07 11:22:51;;;;;;;1.42;0.25;;;18.40;99.90;;;;;;5076149;28;20410;-49
2022/07/07 11:25:24;;;;;;;4.32;0.40;;;18.40;99.90;;;;;;5064289;28;20509;-50
2022/07/07 11:27:51;;;;;;;3.53;0.70;;;18.40;99.90;;;;;;5066676;28;20119;-53
2022/07/07 11:30:21;;;;;;;2.13;0.30;;;18.40;99.90;;;;;;5074722;28;20097;-49
2022/07/07 11:32:47;;;;;;;3.17;0.38;;;18.30;99.90;;;;;;5064665;28;20329;-50
2022/07/07 11:35:13;;;;;;;3.88;0.30;;;18.30;99.90;;;;;;5073476;28;20059;-51
2022/07/07 11:37:43;;;;;;;3.53;0.50;;;18.30;99.90;;;;;;5084813;28;20067;-49
2022/07/07 11:40:15;;;;;;;6.03;0.70;;;18.20;99.90;;;;;;5080100;28;20036;-49
2022/07/07 11:42:41;;;;;;;4.28;1.00;;;18.20;99.90;;;;;;5065234;28;20128;-55
2022/07/07 11:45:18;;;;;;;9.32;1.50;;;18.10;99.90;;;;;;5066899;28;20115;-49
2022/07/07 11:47:44;;;;;;;6.50;0.98;;;18.00;99.90;;;;;;5065416;28;20094;-51
2022/07/07 11:50:09;;;;;;;7.35;1.23;;;17.90;99.90;;;;;;5067702;28;20043;-49
2022/07/07 11:52:35;;;;;;;7.90;0.93;;;17.90;99.90;;;;;;5065313;28;20094;-50
2022/07/07 11:55:05;;;;;;;9.10;1.33;;;17.90;99.90;;;;;;5066561;28;20457;-49
2022/07/07 11:57:33;;;;;;;9.68;1.40;;;17.80;99.90;;;;;;5082104;28;20050;-49
2022/07/07 12:00:19;;;;;;;11.68;1.80;;;17.90;99.90;;;;;;5076896;28;20115;-54
2022/07/07 12:02:47;;;;;;;7.22;1.25;;;18.00;99.90;;;;;;5072830;28;20047;-53
2022/07/07 12:05:16;;;;;;;7.75;1.10;;;18.00;99.90;;;;;;5073970;28;20039;-49
2022/07/07 12:07:43;;;;;;;12.68;2.08;;;18.10;99.90;;;;;;5077713;28;20043;-52
2022/07/07 12:10:30;;;;;;;9.90;1.30;;;18.10;99.90;;;;;;5080179;28;20036;-50
2022/07/07 12:13:07;;;;;;;18.80;1.88;;;18.10;99.90;;;;;;5065883;28;20068;-51
2022/07/07 12:15:38;;;;;;;6.32;1.25;;;18.10;99.90;;;;;;5074209;28;20505;-49
2022/07/07 12:18:05;;;;;;;17.23;1.73;;;18.10;99.90;;;;;;5065611;28;20040;-52
2022/07/07 12:20:32;;;;;;;7.03;1.40;;;18.10;99.90;;;;;;5075637;28;20060;-49
2022/07/07 12:22:58;;;;;;;;;;;18.00;99.90;;;;;;5065198;28;20029;-51
2022/07/07 12:25:31;;;;;;;11.93;1.48;;;18.00;99.90;;;;;;5081588;28;19916;-49
2022/07/07 12:28:00;;;;;;;11.45;1.33;;;18.00;99.90;;;;;;5083385;28;20036;-53
2022/07/07 12:30:31;;;;;;;13.00;1.30;;;18.00;99.90;;;;;;5078205;28;20059;-53
2022/07/07 12:32:57;;;;;;;10.93;1.83;;;18.00;99.90;;;;;;5084183;28;20048;-54
2022/07/07 12:35:25;;;;;;;12.57;0.90;;;17.90;99.90;;;;;;5080376;28;20037;-53
2022/07/07 12:37:51;;;;;;;8.25;1.13;;;17.90;99.90;;;;;;5078765;28;20509;-53
2022/07/07 12:40:16;;;;;;;9.38;1.27;;;17.90;99.90;;;;;;5087023;28;20113;-53
2022/07/07 12:42:46;;;;;;;11.75;1.25;;;17.90;99.90;;;;;;5086903;28;20101;-53
2022/07/07 12:45:12;;;;;;;6.63;0.68;;;18.00;99.90;;;;;;5080207;28;20097;-54
2022/07/07 12:47:56;;;;;;;9.50;1.35;;;18.10;99.90;;;;;;5081278;28;20504;-54
2022/07/07 12:50:23;;;;;;;9.45;1.10;;;18.10;99.90;;;;;;5074311;28;20043;-55
2022/07/07 12:53:05;;;;;;;12.85;1.20;;;18.20;99.90;;;;;;5073036;28;20094;-53
2022/07/07 12:55:39;;;;;;;13.52;1.60;;;18.20;99.90;;;;;;5076580;28;20531;-52